sensor_id;sensor_type;location;lat;lon;timestamp;pressure;altitude;pressure_sealevel;temperature;humidity
70458;BME280;57919;56.194;95.716;2023-09-07T00:08:11;98852.69;;;10.03;86.50
70458;BME280;57919;56.194;95.716;2023-09-07T00:18:13;98847.47;;;10.21;86.63
70458;BME280;57919;56.194;95.716;2023-09-07T00:28:15;98848.59;;;10.28;86.55
70458;BME280;57919;56.194;95.716;2023-09-07T00:38:18;98867.66;;;10.27;86.22
70458;BME280;57919;56.194;95.716;2023-09-07T00:48:20;98860.50;;;10.16;86.73
70458;BME280;57919;56.194;95.716;2023-09-07T00:58:22;98849.97;;;10.03;87.10
70458;BME280;57919;56.194;95.716;2023-09-07T01:08:31;98841.06;;;10.32;87.97
70458;BME280;57919;56.194;95.716;2023-09-07T01:18:34;98833.81;;;10.32;89.28
70458;BME280;57919;56.194;95.716;2023-09-07T01:28:40;98841.44;;;10.76;88.28
70458;BME280;57919;56.194;95.716;2023-09-07T01:38:43;98835.25;;;11.30;87.08
70458;BME280;57919;56.194;95.716;2023-09-07T01:48:45;98820.25;;;11.63;85.61
70458;BME280;57919;56.194;95.716;2023-09-07T01:58:47;98830.16;;;11.82;84.58
70458;BME280;57919;56.194;95.716;2023-09-07T02:08:49;98818.31;;;12.36;84.08
70458;BME280;57919;56.194;95.716;2023-09-07T02:19:00;98818.63;;;12.77;83.33
70458;BME280;57919;56.194;95.716;2023-09-07T02:29:02;98819.78;;;13.60;81.72
70458;BME280;57919;56.194;95.716;2023-09-07T02:39:08;98821.97;;;14.07;79.82
70458;BME280;57919;56.194;95.716;2023-09-07T02:49:13;98837.16;;;14.42;80.33
70458;BME280;57919;56.194;95.716;2023-09-07T02:59:16;98836.31;;;15.54;77.96
70458;BME280;57919;56.194;95.716;2023-09-07T03:09:18;98825.06;;;15.65;77.26
70458;BME280;57919;56.194;95.716;2023-09-07T03:19:20;98825.28;;;16.17;75.39
70458;BME280;57919;56.194;95.716;2023-09-07T03:29:23;98811.44;;;18.26;71.32
70458;BME280;57919;56.194;95.716;2023-09-07T03:39:24;98808.78;;;20.14;67.06
70458;BME280;57919;56.194;95.716;2023-09-07T03:49:26;98807.88;;;21.34;62.07
70458;BME280;57919;56.194;95.716;2023-09-07T03:59:29;98779.91;;;22.01;59.42
70458;BME280;57919;56.194;95.716;2023-09-07T04:09:31;98791.84;;;21.82;57.40
70458;BME280;57919;56.194;95.716;2023-09-07T04:19:33;98789.25;;;21.93;54.58
70458;BME280;57919;56.194;95.716;2023-09-07T04:29:35;98781.97;;;21.68;56.75
70458;BME280;57919;56.194;95.716;2023-09-07T04:39:37;98779.31;;;21.02;57.17
70458;BME280;57919;56.194;95.716;2023-09-07T04:49:39;98772.91;;;20.22;59.01
70458;BME280;57919;56.194;95.716;2023-09-07T04:59:41;98771.19;;;20.14;57.90
70458;BME280;57919;56.194;95.716;2023-09-07T05:09:43;98774.16;;;19.58;58.27
70458;BME280;57919;56.194;95.716;2023-09-07T05:19:45;98759.53;;;19.51;58.43
70458;BME280;57919;56.194;95.716;2023-09-07T05:29:47;98766.22;;;19.08;59.11
70458;BME280;57919;56.194;95.716;2023-09-07T05:39:50;98763.59;;;18.65;59.63
70458;BME280;57919;56.194;95.716;2023-09-07T05:49:52;98761.38;;;18.11;61.45
70458;BME280;57919;56.194;95.716;2023-09-07T05:59:54;98756.13;;;17.95;62.60
70458;BME280;57919;56.194;95.716;2023-09-07T06:09:56;98753.75;;;17.70;63.80
70458;BME280;57919;56.194;95.716;2023-09-07T06:20:01;98747.25;;;17.57;63.23
70458;BME280;57919;56.194;95.716;2023-09-07T06:30:06;98735.91;;;17.74;63.15
70458;BME280;57919;56.194;95.716;2023-09-07T06:40:09;98728.66;;;18.24;62.86
70458;BME280;57919;56.194;95.716;2023-09-07T06:50:12;98715.59;;;18.48;61.62
70458;BME280;57919;56.194;95.716;2023-09-07T07:00:14;98723.00;;;18.54;61.95
70458;BME280;57919;56.194;95.716;2023-09-07T07:10:17;98713.88;;;18.68;62.65
70458;BME280;57919;56.194;95.716;2023-09-07T07:20:19;98707.31;;;19.31;62.03
70458;BME280;57919;56.194;95.716;2023-09-07T07:30:21;98689.38;;;19.90;60.10
70458;BME280;57919;56.194;95.716;2023-09-07T07:40:23;98701.06;;;20.38;57.12
70458;BME280;57919;56.194;95.716;2023-09-07T07:50:25;98696.41;;;20.25;55.96
70458;BME280;57919;56.194;95.716;2023-09-07T08:00:30;98693.06;;;20.50;56.03
70458;BME280;57919;56.194;95.716;2023-09-07T08:10:36;98689.47;;;20.69;54.61
70458;BME280;57919;56.194;95.716;2023-09-07T08:20:40;98678.91;;;20.59;55.18
70458;BME280;57919;56.194;95.716;2023-09-07T08:30:43;98673.81;;;20.30;55.95
70458;BME280;57919;56.194;95.716;2023-09-07T08:40:45;98667.06;;;19.45;56.63
70458;BME280;57919;56.194;95.716;2023-09-07T08:50:49;98662.22;;;18.99;58.07
70458;BME280;57919;56.194;95.716;2023-09-07T09:00:51;98657.72;;;18.85;58.86
70458;BME280;57919;56.194;95.716;2023-09-07T09:11:03;98657.41;;;19.08;58.76
70458;BME280;57919;56.194;95.716;2023-09-07T09:21:05;98645.00;;;19.19;59.44
70458;BME280;57919;56.194;95.716;2023-09-07T09:31:09;98647.53;;;19.14;59.46
70458;BME280;57919;56.194;95.716;2023-09-07T09:41:14;98644.56;;;19.15;60.03
70458;BME280;57919;56.194;95.716;2023-09-07T09:51:18;98640.09;;;19.55;59.63
70458;BME280;57919;56.194;95.716;2023-09-07T10:01:20;98639.84;;;19.50;59.58
70458;BME280;57919;56.194;95.716;2023-09-07T10:11:34;98649.28;;;19.28;59.84
70458;BME280;57919;56.194;95.716;2023-09-07T10:21:39;98645.72;;;19.34;60.80
70458;BME280;57919;56.194;95.716;2023-09-07T10:31:50;98645.47;;;19.29;61.07
70458;BME280;57919;56.194;95.716;2023-09-07T10:41:52;98641.22;;;19.20;61.46
70458;BME280;57919;56.194;95.716;2023-09-07T10:51:54;98629.31;;;18.99;61.89
70458;BME280;57919;56.194;95.716;2023-09-07T11:02:03;98623.97;;;18.85;62.52
70458;BME280;57919;56.194;95.716;2023-09-07T11:12:06;98634.31;;;18.89;62.65
70458;BME280;57919;56.194;95.716;2023-09-07T11:22:10;98642.56;;;18.89;62.51
70458;BME280;57919;56.194;95.716;2023-09-07T11:32:12;98655.25;;;18.97;62.99
70458;BME280;57919;56.194;95.716;2023-09-07T11:42:14;98669.88;;;19.11;63.21
70458;BME280;57919;56.194;95.716;2023-09-07T11:52:16;98667.47;;;18.94;63.05
70458;BME280;57919;56.194;95.716;2023-09-07T12:02:18;98696.78;;;18.17;64.36
70458;BME280;57919;56.194;95.716;2023-09-07T12:12:22;98711.56;;;16.85;63.57
70458;BME280;57919;56.194;95.716;2023-09-07T12:22:25;98715.50;;;15.84;65.52
70458;BME280;57919;56.194;95.716;2023-09-07T12:32:27;98720.44;;;15.18;66.79
70458;BME280;57919;56.194;95.716;2023-09-07T12:42:28;98723.94;;;14.96;67.48
70458;BME280;57919;56.194;95.716;2023-09-07T12:52:31;98739.00;;;14.68;68.04
70458;BME280;57919;56.194;95.716;2023-09-07T13:02:34;98747.16;;;14.68;68.33
70458;BME280;57919;56.194;95.716;2023-09-07T13:12:35;98745.28;;;14.28;69.43
70458;BME280;57919;56.194;95.716;2023-09-07T13:22:38;98747.81;;;13.80;70.59
70458;BME280;57919;56.194;95.716;2023-09-07T13:32:40;98744.69;;;13.51;71.06
70458;BME280;57919;56.194;95.716;2023-09-07T13:42:42;98740.53;;;13.22;71.85
70458;BME280;57919;56.194;95.716;2023-09-07T13:52:44;98769.97;;;13.09;72.25
70458;BME280;57919;56.194;95.716;2023-09-07T14:02:46;98776.94;;;13.12;72.45
70458;BME280;57919;56.194;95.716;2023-09-07T14:12:48;98781.75;;;13.18;72.46
70458;BME280;57919;56.194;95.716;2023-09-07T14:22:50;98793.06;;;13.13;72.99
70458;BME280;57919;56.194;95.716;2023-09-07T14:32:52;98798.47;;;13.05;73.46
70458;BME280;57919;56.194;95.716;2023-09-07T14:42:54;98803.91;;;12.79;73.59
70458;BME280;57919;56.194;95.716;2023-09-07T14:52:59;98808.91;;;12.66;74.02
70458;BME280;57919;56.194;95.716;2023-09-07T15:03:01;98802.19;;;12.52;74.75
70458;BME280;57919;56.194;95.716;2023-09-07T15:13:03;98815.63;;;12.36;75.13
70458;BME280;57919;56.194;95.716;2023-09-07T15:23:05;98827.16;;;12.38;75.74
70458;BME280;57919;56.194;95.716;2023-09-07T15:33:07;98837.44;;;12.52;75.84
70458;BME280;57919;56.194;95.716;2023-09-07T15:43:09;98845.41;;;12.72;76.06
70458;BME280;57919;56.194;95.716;2023-09-07T15:53:11;98839.13;;;12.71;76.43
70458;BME280;57919;56.194;95.716;2023-09-07T16:03:13;98848.50;;;12.77;76.43
70458;BME280;57919;56.194;95.716;2023-09-07T16:13:16;98841.75;;;12.81;76.65
70458;BME280;57919;56.194;95.716;2023-09-07T16:23:18;98843.19;;;12.93;76.69
70458;BME280;57919;56.194;95.716;2023-09-07T16:33:20;98838.53;;;13.11;76.84
70458;BME280;57919;56.194;95.716;2023-09-07T16:43:22;98844.38;;;13.16;76.60
70458;BME280;57919;56.194;95.716;2023-09-07T16:53:25;98846.47;;;13.05;77.04
70458;BME280;57919;56.194;95.716;2023-09-07T17:03:27;98848.19;;;12.80;77.37
70458;BME280;57919;56.194;95.716;2023-09-07T17:13:29;98853.25;;;12.57;77.84
70458;BME280;57919;56.194;95.716;2023-09-07T17:23:31;98860.88;;;12.36;78.09
70458;BME280;57919;56.194;95.716;2023-09-07T17:33:33;98852.50;;;12.11;78.26
70458;BME280;57919;56.194;95.716;2023-09-07T17:43:35;98853.78;;;11.89;78.79
70458;BME280;57919;56.194;95.716;2023-09-07T17:53:37;98844.50;;;11.64;79.08
70458;BME280;57919;56.194;95.716;2023-09-07T18:03:39;98850.66;;;11.29;79.48
70458;BME280;57919;56.194;95.716;2023-09-07T18:13:41;98839.19;;;11.08;79.83
70458;BME280;57919;56.194;95.716;2023-09-07T18:23:43;98827.03;;;10.85;80.06
70458;BME280;57919;56.194;95.716;2023-09-07T18:33:45;98824.94;;;10.59;79.97
70458;BME280;57919;56.194;95.716;2023-09-07T18:43:47;98836.34;;;10.44;80.09
70458;BME280;57919;56.194;95.716;2023-09-07T18:53:49;98839.50;;;10.29;80.08
70458;BME280;57919;56.194;95.716;2023-09-07T19:03:52;98853.97;;;10.19;79.90
70458;BME280;57919;56.194;95.716;2023-09-07T19:13:55;98846.44;;;10.03;79.80
70458;BME280;57919;56.194;95.716;2023-09-07T19:23:58;98854.97;;;10.08;79.73
70458;BME280;57919;56.194;95.716;2023-09-07T19:34:01;98863.53;;;10.23;79.73
70458;BME280;57919;56.194;95.716;2023-09-07T19:44:04;98867.25;;;10.41;79.42
70458;BME280;57919;56.194;95.716;2023-09-07T19:54:06;98864.97;;;10.46;78.92
70458;BME280;57919;56.194;95.716;2023-09-07T20:04:12;98866.38;;;10.31;78.89
70458;BME280;57919;56.194;95.716;2023-09-07T20:14:14;98872.75;;;10.11;79.24
70458;BME280;57919;56.194;95.716;2023-09-07T20:24:17;98881.09;;;9.88;79.25
70458;BME280;57919;56.194;95.716;2023-09-07T20:34:19;98887.63;;;9.76;79.63
70458;BME280;57919;56.194;95.716;2023-09-07T20:44:21;98907.59;;;9.54;79.60
70458;BME280;57919;56.194;95.716;2023-09-07T20:54:23;98901.81;;;9.28;79.57
70458;BME280;57919;56.194;95.716;2023-09-07T21:04:26;98890.63;;;9.12;79.81
70458;BME280;57919;56.194;95.716;2023-09-07T21:14:28;98904.13;;;9.12;80.14
70458;BME280;57919;56.194;95.716;2023-09-07T21:24:31;98903.88;;;9.15;80.03
70458;BME280;57919;56.194;95.716;2023-09-07T21:34:32;98904.50;;;9.28;80.02
70458;BME280;57919;56.194;95.716;2023-09-07T21:44:34;98905.44;;;9.48;80.22
70458;BME280;57919;56.194;95.716;2023-09-07T21:54:36;98899.81;;;9.61;80.12
70458;BME280;57919;56.194;95.716;2023-09-07T22:04:38;98897.00;;;9.72;80.19
70458;BME280;57919;56.194;95.716;2023-09-07T22:14:40;98908.56;;;9.93;80.01
70458;BME280;57919;56.194;95.716;2023-09-07T22:24:42;98900.75;;;10.00;79.81
70458;BME280;57919;56.194;95.716;2023-09-07T22:34:44;98903.75;;;10.07;79.59
70458;BME280;57919;56.194;95.716;2023-09-07T22:44:45;98905.72;;;9.95;79.48
70458;BME280;57919;56.194;95.716;2023-09-07T22:54:47;98893.88;;;9.77;79.94
70458;BME280;57919;56.194;95.716;2023-09-07T23:04:49;98898.59;;;9.84;80.10
70458;BME280;57919;56.194;95.716;2023-09-07T23:14:51;98895.63;;;9.97;79.50
70458;BME280;57919;56.194;95.716;2023-09-07T23:24:54;98909.78;;;10.20;79.53
70458;BME280;57919;56.194;95.716;2023-09-07T23:34:56;98908.22;;;10.37;79.61
70458;BME280;57919;56.194;95.716;2023-09-07T23:44:58;98913.06;;;10.52;79.99
70458;BME280;57919;56.194;95.716;2023-09-07T23:55:00;98914.34;;;10.67;79.18
